createdAt,value
2022-11-04T00:00:29.860Z,-11094.31
2022-11-04T00:07:01.829Z,-11083.22
2022-11-04T00:10:08.759Z,-11077.63
2022-11-04T00:13:13.833Z,-11078.75
2022-11-04T00:16:37.839Z,-11069.06
2022-11-04T00:20:02.443Z,-11076.06
2022-11-04T00:23:26.497Z,-11083.50
2022-11-04T00:26:50.196Z,-11066.66
2022-11-04T00:29:56.565Z,-11063.44
2022-11-04T00:33:19.959Z,-11067.50
2022-11-04T00:36:27.917Z,-11064.56
2022-11-04T00:39:34.190Z,-11060.91
2022-11-04T00:42:40.208Z,-11053.47
2022-11-04T00:45:46.501Z,-11049.84
2022-11-04T00:48:52.847Z,-11071.44
2022-11-04T00:52:00.334Z,-11086.03
2022-11-04T00:55:07.861Z,-11082.94
2022-11-04T00:58:13.881Z,-11075.81
2022-11-04T01:01:21.014Z,-11065.00
2022-11-04T01:04:27.301Z,-11064.00
2022-11-04T01:07:37.402Z,-11065.97
2022-11-04T01:10:47.454Z,-11075.38
2022-11-04T01:13:53.792Z,-11068.78
2022-11-04T01:16:59.774Z,-11075.09
2022-11-04T01:20:06.686Z,-11059.09
2022-11-04T01:23:14.385Z,-11053.91
2022-11-04T01:26:23.024Z,-11033.69
2022-11-04T01:29:29.425Z,-11048.72
2022-11-04T01:32:36.089Z,-11046.19
2022-11-04T01:35:42.266Z,-11049.41
2022-11-04T01:38:50.370Z,-11067.78
2022-11-04T01:41:56.760Z,-11051.50
2022-11-04T01:45:03.405Z,-11064.16
2022-11-04T01:48:19.106Z,-11067.09
2022-11-04T01:51:25.470Z,-11050.81
2022-11-04T01:54:34.050Z,-11045.06
2022-11-04T01:57:43.242Z,-11056.84
2022-11-04T02:00:50.046Z,-11045.06
2022-11-04T02:04:20.142Z,-11045.91
2022-11-04T02:07:26.592Z,-11030.63
2022-11-04T02:10:34.723Z,-11044.78
2022-11-04T02:13:39.593Z,-11047.44
2022-11-04T02:16:49.666Z,-11034.81
2022-11-04T02:20:10.421Z,-11037.50
2022-11-04T02:23:34.537Z,-11040.56
2022-11-04T02:27:18.505Z,-11036.09
2022-11-04T02:30:27.396Z,-11033.41
2022-11-04T02:33:39.773Z,-11044.94
2022-11-04T02:36:53.962Z,-11051.25
2022-11-04T02:40:11.009Z,-11048.16
2022-11-04T02:43:25.519Z,-11048.16
2022-11-04T02:46:37.182Z,-11045.22
2022-11-04T02:49:52.404Z,-11048.16
2022-11-04T02:53:02.944Z,-11053.06
2022-11-04T02:56:11.987Z,-11059.09
2022-11-04T02:59:22.349Z,-11052.63
2022-11-04T03:02:35.914Z,-11039.72
2022-11-04T03:05:45.965Z,-11029.63
2022-11-04T03:08:54.817Z,-11021.22
2022-11-04T03:12:04.980Z,-11003.81
2022-11-04T03:15:15.799Z,-11011.53
2022-11-04T03:18:32.043Z,-11037.50
2022-11-04T03:21:43.206Z,-11025.44
2022-11-04T03:24:50.877Z,-11006.78
2022-11-04T03:28:04.442Z,-11005.66
2022-11-04T03:31:14.363Z,-11020.09
2022-11-04T03:34:21.906Z,-11021.22
2022-11-04T03:37:28.230Z,-11023.31
2022-11-04T03:40:34.927Z,-11027.37
2022-11-04T03:43:43.127Z,-11040.00
2022-11-04T03:46:49.764Z,-11048.16
2022-11-04T03:50:06.514Z,-11048.44
2022-11-04T03:53:15.365Z,-11027.09
2022-11-04T03:57:03.639Z,-11017.56
2022-11-04T04:00:13.932Z,-11032.44
2022-11-04T04:03:26.133Z,-11022.34
2022-11-04T04:06:36.842Z,-11023.75
2022-11-04T04:09:47.434Z,-11011.41
2022-11-04T04:12:57.483Z,-11016.72
2022-11-04T04:16:08.885Z,-11035.81
2022-11-04T04:19:18.409Z,-11030.75
2022-11-04T04:22:30.960Z,-11008.31
2022-11-04T04:26:05.864Z,-11018.69
2022-11-04T04:29:12.923Z,-11019.25
2022-11-04T04:32:21.730Z,-11020.50
2022-11-04T04:35:45.170Z,-11024.31
2022-11-04T04:39:10.169Z,-11026.28
2022-11-04T04:42:33.706Z,-11029.06
2022-11-04T04:45:43.619Z,-11020.38
2022-11-04T04:48:49.869Z,-11019.25
2022-11-04T04:51:55.832Z,-11020.09
2022-11-04T04:55:03.035Z,-11006.63
2022-11-04T04:58:10.705Z,-11003.25
2022-11-04T05:01:16.756Z,-11012.53
2022-11-04T05:04:23.169Z,-11022.75
2022-11-04T05:07:29.296Z,-10997.94
2022-11-04T05:10:36.937Z,-10987.44
2022-11-04T05:13:43.041Z,-11014.75
2022-11-04T05:16:49.093Z,-11027.66
2022-11-04T05:19:55.486Z,-11018.41
2022-11-04T05:23:01.774Z,-11015.88
2022-11-04T05:26:09.781Z,-11011.69
2022-11-04T05:32:26.799Z,-11021.91
2022-11-04T05:35:33.323Z,-11043.38
2022-11-04T05:38:39.720Z,-11020.66
2022-11-04T05:41:47.192Z,-11031.31
2022-11-04T05:44:53.265Z,-11003.25
2022-11-04T05:48:00.606Z,-11027.25
2022-11-04T05:51:07.076Z,-11046.19
2022-11-04T05:54:13.358Z,-11053.34
2022-11-04T05:57:20.957Z,-11052.91
2022-11-04T06:00:27.783Z,-11063.88
2022-11-04T06:03:34.140Z,-11077.91
2022-11-04T06:06:40.106Z,-11070.88
2022-11-04T06:09:46.020Z,-11071.03
2022-11-04T06:12:53.348Z,-11071.72
2022-11-04T06:15:59.275Z,-11075.81
2022-11-04T06:19:08.557Z,-11091.38
2022-11-04T06:22:17.470Z,-11074.41
2022-11-04T06:25:23.205Z,-11090.81
2022-11-04T06:28:30.773Z,-11102.91
2022-11-04T06:31:37.099Z,-11090.81
2022-11-04T06:34:43.796Z,-11096.16
2022-11-04T06:37:50.101Z,-11107.97
2022-11-04T06:40:56.054Z,-11106.97
2022-11-04T06:44:03.943Z,-11115.53
2022-11-04T06:47:11.312Z,-11119.75
2022-11-04T06:50:17.161Z,-11123.53
2022-11-04T06:53:23.362Z,-11136.03
2022-11-04T06:56:29.577Z,-11149.94
2022-11-04T06:59:37.254Z,-11149.25
2022-11-04T07:02:43.824Z,-11156.13
2022-11-04T07:05:50.157Z,-11162.59
2022-11-04T07:08:59.669Z,-11167.38
2022-11-04T07:12:06.257Z,-11173.44
2022-11-04T07:15:14.349Z,-11176.09
2022-11-04T07:18:20.374Z,-11184.25
2022-11-04T07:21:27.038Z,-11184.94
2022-11-04T07:24:33.397Z,-11184.53
2022-11-04T07:27:39.693Z,-11197.47
2022-11-04T07:30:47.226Z,-11204.63
2022-11-04T07:33:53.553Z,-11197.75
2022-11-04T07:36:59.438Z,-11197.88
2022-11-04T07:40:06.285Z,-11219.81
2022-11-04T07:43:12.521Z,-11219.13
2022-11-04T07:46:20.986Z,-11226.44
2022-11-04T07:49:27.622Z,-11219.97
2022-11-04T07:52:33.886Z,-11225.16
2022-11-04T07:55:43.370Z,-11232.63
2022-11-04T07:58:49.845Z,-11234.19
2022-11-04T08:01:57.570Z,-11238.09
2022-11-04T08:05:03.761Z,-11253.03
2022-11-04T08:08:10.053Z,-11245.00
2022-11-04T08:11:18.994Z,-11245.56
2022-11-04T08:14:25.569Z,-11256.41
2022-11-04T08:17:33.081Z,-11259.06
2022-11-04T08:20:39.603Z,-11265.84
2022-11-04T08:23:46.277Z,-11268.22
2022-11-04T08:26:52.498Z,-11274.41
2022-11-04T08:29:58.930Z,-11278.34
2022-11-04T08:33:06.844Z,-11276.94
2022-11-04T08:36:16.211Z,-11282.16
2022-11-04T08:39:22.293Z,-11283.13
2022-11-04T08:42:28.365Z,-11294.69
2022-11-04T08:45:34.428Z,-11300.75
2022-11-04T08:48:42.744Z,-11298.19
2022-11-04T08:51:49.811Z,-11324.25
2022-11-04T08:54:57.500Z,-11322.56
2022-11-04T08:58:04.544Z,-11319.87
2022-11-04T09:01:12.868Z,-11319.03
2022-11-04T09:04:20.950Z,-11335.50
2022-11-04T09:07:27.049Z,-11331.00
2022-11-04T09:10:33.105Z,-11341.16
2022-11-04T09:13:40.154Z,-11355.78
2022-11-04T09:16:46.249Z,-11363.53
2022-11-04T09:19:53.533Z,-11352.41
2022-11-04T09:22:59.965Z,-11352.56
2022-11-04T09:26:08.802Z,-11347.22
2022-11-04T09:29:15.205Z,-11357.06
2022-11-04T09:32:21.217Z,-11360.44
2022-11-04T09:35:28.828Z,-11362.00
2022-11-04T09:38:34.768Z,-11374.13
2022-11-04T09:42:12.254Z,-11379.19
2022-11-04T09:45:21.876Z,-11377.63
2022-11-04T09:48:33.319Z,-11377.50
2022-11-04T09:51:57.715Z,-11381.72
2022-11-04T09:55:12.681Z,-11390.47
2022-11-04T09:58:19.223Z,-11383.56
2022-11-04T10:01:32.442Z,-11396.81
2022-11-04T10:04:50.304Z,-11405.69
2022-11-04T10:08:19.030Z,-11409.78
2022-11-04T10:11:31.659Z,-11418.09
2022-11-04T10:15:09.054Z,-11415.25
2022-11-04T10:18:29.125Z,-11415.25
2022-11-04T10:21:47.196Z,-11409.91
2022-11-04T10:25:04.398Z,-11413.56
2022-11-04T10:28:15.156Z,-11432.19
2022-11-04T10:31:21.581Z,-11425.41
2022-11-04T10:34:33.900Z,-11434.72
2022-11-04T10:37:40.276Z,-11452.75
2022-11-04T10:40:51.108Z,-11452.75
2022-11-04T10:44:01.137Z,-11442.34
2022-11-04T10:47:19.609Z,-11455.59
2022-11-04T10:50:38.775Z,-11455.03
2022-11-04T10:53:45.333Z,-11459.81
2022-11-04T10:56:55.037Z,-11468.97
2022-11-04T11:00:02.894Z,-11453.91
2022-11-04T11:03:32.062Z,-11470.81
2022-11-04T11:06:38.946Z,-11471.66
2022-11-04T11:09:54.543Z,-11486.03
2022-11-04T11:13:04.836Z,-11474.75
2022-11-04T11:16:14.330Z,-11480.97
2022-11-04T11:19:23.158Z,-11490.28
2022-11-04T11:22:32.858Z,-11483.78
2022-11-04T11:25:45.385Z,-11485.91
2022-11-04T11:28:59.109Z,-11483.66
2022-11-04T11:32:05.706Z,-11496.47
2022-11-04T11:35:18.158Z,-11511.28
2022-11-04T11:38:27.652Z,-11505.78
2022-11-04T11:41:41.076Z,-11490.28
2022-11-04T11:44:54.454Z,-11465.44
2022-11-04T11:48:00.681Z,-11497.31
2022-11-04T11:51:21.899Z,-11500.16
2022-11-04T11:54:34.641Z,-11492.81
2022-11-04T12:01:27.765Z,-11460.25
2022-11-04T12:11:56.326Z,-11509.47
2022-11-04T12:15:20.019Z,-11516.78
2022-11-04T12:18:44.114Z,-11507.06
2022-11-04T12:22:00.671Z,-11499.59
2022-11-04T12:25:19.046Z,-11492.25
2022-11-04T12:28:32.286Z,-11510.16
2022-11-04T12:31:48.503Z,-11490.84
2022-11-04T12:35:12.206Z,-11489.72
2022-11-04T12:38:32.717Z,-11491.97
2022-11-04T12:42:19.514Z,-11481.81
2022-11-04T12:45:31.438Z,-11488.88
2022-11-04T12:49:08.899Z,-11502.13
2022-11-04T12:52:32.034Z,-11502.41
2022-11-04T12:55:49.216Z,-11523.72
2022-11-04T12:59:33.501Z,-11517.06
2022-11-04T13:02:46.207Z,-11537.69
2022-11-04T13:05:55.135Z,-11498.44
2022-11-04T13:09:07.125Z,-11488.88
2022-11-04T13:12:17.557Z,-11481.25
2022-11-04T13:15:28.665Z,-11474.19
2022-11-04T13:18:38.683Z,-11474.19
2022-11-04T13:21:44.955Z,-11472.38
2022-11-04T13:24:56.925Z,-11471.22
2022-11-04T13:28:04.583Z,-11487.75
2022-11-04T13:31:16.771Z,-11467.44
2022-11-04T13:34:34.689Z,-11467.84
2022-11-04T13:37:49.149Z,-11474.19
2022-11-04T13:41:16.132Z,-11474.91
2022-11-04T13:44:28.134Z,-11469.69
2022-11-04T13:47:38.758Z,-11470.25
2022-11-04T13:50:44.610Z,-11478.72
2022-11-04T13:53:55.182Z,-11465.44
2022-11-04T13:57:16.319Z,-11461.66
2022-11-04T14:00:25.686Z,-11467.72
2022-11-04T14:03:52.958Z,-11465.72
2022-11-04T14:07:01.875Z,-11466.00
2022-11-04T14:10:40.362Z,-11464.59
2022-11-04T14:14:20.818Z,-11464.03
2022-11-04T14:17:58.782Z,-11451.63
2022-11-04T14:21:10.402Z,-11442.63
2022-11-04T14:24:20.340Z,-11438.38
2022-11-04T14:27:34.218Z,-11424.16
2022-11-04T14:30:49.908Z,-11418.94
2022-11-04T14:33:58.008Z,-11411.03
2022-11-04T14:37:09.871Z,-11392.84
2022-11-04T14:40:27.093Z,-11389.34
2022-11-04T14:43:36.127Z,-11385.66
2022-11-04T14:46:46.670Z,-11386.50
2022-11-04T14:50:01.359Z,-11380.19
2022-11-04T14:53:14.631Z,-11376.50
2022-11-04T14:56:24.728Z,-11381.31
2022-11-04T14:59:31.560Z,-11376.94
2022-11-04T15:02:39.308Z,-11374.41
2022-11-04T15:05:50.881Z,-11365.94
2022-11-04T15:08:57.780Z,-11367.91
2022-11-04T15:12:30.438Z,-11367.91
2022-11-04T15:15:40.151Z,-11352.00
2022-11-04T15:18:48.307Z,-11350.16
2022-11-04T15:21:54.610Z,-11348.75
2022-11-04T15:25:06.013Z,-11344.81
2022-11-04T15:28:19.771Z,-11340.31
2022-11-04T15:31:27.886Z,-11325.38
2022-11-04T15:34:37.494Z,-11329.03
2022-11-04T15:37:45.186Z,-11329.59
2022-11-04T15:40:52.536Z,-11331.56
2022-11-04T15:43:58.197Z,-11326.38
2022-11-04T15:47:21.636Z,-11322.41
2022-11-04T15:50:32.045Z,-11322.13
2022-11-04T15:53:48.636Z,-11317.06
2022-11-04T15:56:56.378Z,-11313.56
2022-11-04T16:00:07.266Z,-11313.56
2022-11-04T16:03:20.675Z,-11303.97
2022-11-04T16:06:39.566Z,-11300.88
2022-11-04T16:09:48.501Z,-11286.22
2022-11-04T16:12:57.917Z,-11290.59
2022-11-04T16:16:15.407Z,-11296.50
2022-11-04T16:19:23.790Z,-11289.34
2022-11-04T16:22:33.459Z,-11290.47
2022-11-04T16:25:40.216Z,-11295.81
2022-11-04T16:28:46.739Z,-11310.88
2022-11-04T16:32:15.967Z,-11300.31
2022-11-04T16:35:24.068Z,-11287.34
2022-11-04T16:38:32.126Z,-11285.53
2022-11-04T16:41:40.561Z,-11275.81
2022-11-04T16:44:52.033Z,-11283.28
2022-11-04T16:47:58.928Z,-11283.28
2022-11-04T16:51:05.570Z,-11273.56
2022-11-04T16:54:13.052Z,-11268.50
2022-11-04T16:57:19.458Z,-11263.16
2022-11-04T17:00:28.159Z,-11264.28
2022-11-04T17:03:34.139Z,-11271.03
2022-11-04T17:06:40.631Z,-11262.31
2022-11-04T17:09:48.478Z,-11257.53
2022-11-04T17:12:55.031Z,-11258.94
2022-11-04T17:16:01.801Z,-11265.56
2022-11-04T17:19:12.188Z,-11253.16
2022-11-04T17:22:18.571Z,-11257.53
2022-11-04T17:25:28.047Z,-11249.78
2022-11-04T17:28:34.064Z,-11251.63
2022-11-04T17:31:40.191Z,-11246.97
2022-11-04T17:34:47.085Z,-11243.88
2022-11-04T17:37:54.188Z,-11246.28
2022-11-04T17:41:33.795Z,-11245.44
2022-11-04T17:44:40.139Z,-11248.53
2022-11-04T17:47:46.131Z,-11250.78
2022-11-04T17:50:52.254Z,-11246.41
2022-11-04T17:53:58.742Z,-11245.44
2022-11-04T17:57:07.447Z,-11242.59
2022-11-04T18:00:15.765Z,-11238.66
2022-11-04T18:03:21.684Z,-11237.97
2022-11-04T18:06:31.568Z,-11241.47
2022-11-04T18:09:39.355Z,-11236.72
2022-11-04T18:12:46.996Z,-11232.63
2022-11-04T18:15:53.049Z,-11228.69
2022-11-04T18:19:00.105Z,-11228.53
2022-11-04T18:22:06.277Z,-11231.78
2022-11-04T18:25:13.791Z,-11219.25
2022-11-04T18:28:21.624Z,-11225.16
2022-11-04T18:31:29.954Z,-11220.53
2022-11-04T18:34:36.281Z,-11217.28
2022-11-04T18:37:46.976Z,-11210.81
2022-11-04T18:40:55.270Z,-11211.94
2022-11-04T18:44:02.921Z,-11215.59
2022-11-04T18:47:09.374Z,-11214.75
2022-11-04T18:50:15.630Z,-11209.13
2022-11-04T18:53:26.852Z,-11214.47
2022-11-04T18:56:33.430Z,-11215.31
2022-11-04T18:59:41.260Z,-11210.81
2022-11-04T19:02:47.510Z,-11199.16
2022-11-04T19:05:54.105Z,-11206.03
2022-11-04T19:09:13.315Z,-11205.75
2022-11-04T19:12:46.485Z,-11211.38
2022-11-04T19:15:54.250Z,-11223.75
2022-11-04T19:19:01.839Z,-11218.56
2022-11-04T19:22:08.249Z,-11217.28
2022-11-04T19:25:14.632Z,-11217.84
2022-11-04T19:28:37.289Z,-11227.97
2022-11-04T19:31:48.911Z,-11236.16
2022-11-04T19:34:55.081Z,-11233.31
2022-11-04T19:38:01.944Z,-11204.50
2022-11-04T19:41:30.451Z,-11195.91
2022-11-04T19:44:35.778Z,-11198.87
2022-11-04T19:47:43.344Z,-11205.06
2022-11-04T19:50:50.712Z,-11211.09
2022-11-04T19:53:57.452Z,-11214.47
2022-11-04T19:57:03.555Z,-11211.25
2022-11-04T20:00:12.083Z,-11210.81
2022-11-04T20:03:19.608Z,-11207.72
2022-11-04T20:06:25.501Z,-11208.84
2022-11-04T20:09:31.507Z,-11199.84
2022-11-04T20:12:55.329Z,-11199.28
2022-11-04T20:16:01.248Z,-11202.81
2022-11-04T20:19:10.549Z,-11199.56
2022-11-04T20:22:17.278Z,-11192.13
2022-11-04T20:25:23.538Z,-11191.69
2022-11-04T20:28:32.515Z,-11187.91
2022-11-04T20:31:39.460Z,-11172.03
2022-11-04T20:34:49.343Z,-11152.91
2022-11-04T20:37:57.460Z,-11170.75
2022-11-04T20:41:07.533Z,-11168.78
2022-11-04T20:44:15.436Z,-11167.09
2022-11-04T20:47:22.335Z,-11170.75
2022-11-04T20:50:29.598Z,-11175.38
2022-11-04T20:53:36.567Z,-11171.31
2022-11-04T20:56:44.240Z,-11162.31
2022-11-04T20:59:50.621Z,-11155.16
2022-11-04T21:02:56.577Z,-11155.56
2022-11-04T21:06:04.093Z,-11159.94
2022-11-04T21:09:12.841Z,-11151.50
2022-11-04T21:12:19.438Z,-11147.97
2022-11-04T21:15:44.439Z,-11146.00
2022-11-04T21:18:50.444Z,-11142.09
2022-11-04T21:21:58.090Z,-11145.31
2022-11-04T21:25:04.767Z,-11151.63
2022-11-04T21:28:11.668Z,-11152.91
2022-11-04T21:31:18.114Z,-11152.19
2022-11-04T21:34:24.612Z,-11136.59
2022-11-04T21:37:36.781Z,-11119.47
2022-11-04T21:40:44.366Z,-11120.88
2022-11-04T21:43:55.359Z,-11127.47
2022-11-04T21:47:01.522Z,-11130.28
2022-11-04T21:50:11.385Z,-11143.06
2022-11-04T21:53:21.690Z,-11147.84
2022-11-04T21:56:29.723Z,-11150.94
2022-11-04T21:59:36.317Z,-11154.31
2022-11-04T22:02:43.889Z,-11129.31
2022-11-04T22:05:58.357Z,-11123.53
2022-11-04T22:09:06.636Z,-11116.09
2022-11-04T22:12:12.570Z,-11113.56
2022-11-04T22:15:39.611Z,-11123.41
2022-11-04T22:18:46.928Z,-11136.75
2022-11-04T22:21:52.926Z,-11139.97
2022-11-04T22:25:04.256Z,-11125.94
2022-11-04T22:28:10.641Z,-11128.75
2022-11-04T22:31:19.238Z,-11122.97
2022-11-04T22:34:26.439Z,-11129.59
2022-11-04T22:37:32.633Z,-11128.88
2022-11-04T22:40:40.550Z,-11122.97
2022-11-04T22:43:46.683Z,-11115.53
2022-11-04T22:46:52.864Z,-11129.59
2022-11-04T22:49:58.886Z,-11119.88
2022-11-04T22:53:05.108Z,-11115.97
2022-11-04T22:56:14.949Z,-11099.66
2022-11-04T22:59:21.239Z,-11108.50
2022-11-04T23:02:29.983Z,-11109.91
2022-11-04T23:05:38.521Z,-11106.97
2022-11-04T23:08:45.182Z,-11093.91
2022-11-04T23:12:09.739Z,-11103.75
2022-11-04T23:15:33.252Z,-11114.97
2022-11-04T23:18:45.253Z,-11123.41
2022-11-04T23:22:08.885Z,-11126.22
2022-11-04T23:25:15.410Z,-11089.00
2022-11-04T23:28:40.488Z,-11092.94
2022-11-04T23:31:46.444Z,-11092.50
2022-11-04T23:35:10.180Z,-11094.75
2022-11-04T23:38:16.229Z,-11111.03
2022-11-04T23:41:39.713Z,-11107.69
2022-11-04T23:45:06.691Z,-11113.84
2022-11-04T23:48:30.528Z,-11111.03
2022-11-04T23:51:54.146Z,-11118.34
2022-11-04T23:55:17.916Z,-11111.47
2022-11-04T23:58:41.705Z,-11112.16
